TimeEDT,TemperatureF,Dew PointF,Humidity,Sea Level PressureIn,VisibilityMPH,Wind Direction,Wind SpeedMPH,Gust SpeedMPH,PrecipitationIn,Events,Conditions,WindDirDegrees,DateUTC
12:54 AM,57.9,57.0,97,29.99,1.2,North,3.5,-,0.01,,Overcast,350,2012-10-03 04:54:00
1:13 AM,57.2,57.2,100,30.03,0.5,Calm,Calm,-,0.00,Fog-Rain,Light Rain,0,2012-10-03 05:13:00
1:54 AM,57.9,57.0,97,29.99,0.8,Calm,Calm,-,0.00,,Mist,0,2012-10-03 05:54:00
2:04 AM,57.2,57.2,100,30.03,1.0,Calm,Calm,-,N/A,,Mist,0,2012-10-03 06:04:00
2:25 AM,57.2,57.2,100,30.02,0.8,Calm,Calm,-,N/A,,Mist,0,2012-10-03 06:25:00
2:35 AM,57.2,57.2,100,30.03,1.2,Calm,Calm,-,N/A,,Overcast,0,2012-10-03 06:35:00
2:54 AM,57.9,57.9,100,29.99,1.5,Calm,Calm,-,0.00,,Overcast,0,2012-10-03 06:54:00
3:23 AM,57.2,57.2,100,30.02,0.8,Calm,Calm,-,N/A,,Overcast,0,2012-10-03 07:23:00
3:31 AM,57.2,57.2,100,30.03,2.0,Calm,Calm,-,N/A,,Overcast,0,2012-10-03 07:31:00
3:43 AM,57.2,57.2,100,30.03,3.0,Calm,Calm,-,N/A,,Overcast,0,2012-10-03 07:43:00
3:54 AM,57.9,57.9,100,29.99,2.5,Calm,Calm,-,N/A,,Overcast,0,2012-10-03 07:54:00
4:26 AM,57.2,57.2,100,30.03,1.5,Calm,Calm,-,N/A,,Overcast,0,2012-10-03 08:26:00
4:40 AM,57.2,57.2,100,30.04,0.8,Calm,Calm,-,N/A,,Overcast,0,2012-10-03 08:40:00
4:54 AM,57.9,57.9,100,30.00,0.5,Calm,Calm,-,N/A,Fog,Fog,0,2012-10-03 08:54:00
5:54 AM,57.9,57.9,100,30.00,0.5,Calm,Calm,-,0.01,Fog,Fog,0,2012-10-03 09:54:00
6:07 AM,57.2,57.2,100,30.04,0.2,Calm,Calm,-,N/A,Fog,Fog,0,2012-10-03 10:07:00
6:54 AM,57.9,57.9,100,30.01,0.2,Calm,Calm,-,N/A,Fog,Fog,0,2012-10-03 10:54:00
7:37 AM,59.0,59.0,100,30.07,0.5,Calm,Calm,-,N/A,Fog,Fog,0,2012-10-03 11:37:00
7:45 AM,59.0,59.0,100,30.08,0.2,SW,3.5,-,N/A,Fog,Fog,230,2012-10-03 11:45:00
7:54 AM,59.0,59.0,100,30.04,0.2,WSW,3.5,-,N/A,Fog,Fog,240,2012-10-03 11:54:00
8:09 AM,59.0,59.0,100,30.08,0.5,Calm,Calm,-,N/A,Fog,Fog,0,2012-10-03 12:09:00
8:47 AM,60.8,60.8,100,30.08,1.0,ENE,3.5,-,N/A,,Overcast,60,2012-10-03 12:47:00
8:54 AM,60.1,60.1,100,30.04,1.0,NE,3.5,-,N/A,,Overcast,40,2012-10-03 12:54:00
9:35 AM,60.8,60.8,100,30.09,2.0,Calm,Calm,-,N/A,,Overcast,0,2012-10-03 13:35:00
9:39 AM,60.8,60.8,100,30.08,3.0,Calm,Calm,-,N/A,,Overcast,0,2012-10-03 13:39:00
9:54 AM,61.0,61.0,100,30.04,3.0,Calm,Calm,-,N/A,,Overcast,0,2012-10-03 13:54:00
10:17 AM,60.8,60.8,100,30.08,2.5,NE,4.6,-,N/A,,Overcast,40,2012-10-03 14:17:00
10:54 AM,62.1,62.1,100,30.03,6.0,Calm,Calm,-,N/A,,Overcast,0,2012-10-03 14:54:00
11:54 AM,63.0,63.0,100,30.04,7.0,Calm,Calm,-,N/A,,Overcast,0,2012-10-03 15:54:00
12:54 PM,66.0,63.0,90,30.02,8.0,Calm,Calm,-,N/A,,Overcast,0,2012-10-03 16:54:00
1:54 PM,66.0,64.0,93,30.01,9.0,Calm,Calm,-,N/A,,Overcast,0,2012-10-03 17:54:00
2:12 PM,66.2,64.4,94,30.07,9.0,Calm,Calm,-,N/A,,Overcast,0,2012-10-03 18:12:00
2:54 PM,68.0,64.9,90,30.01,10.0,Calm,Calm,-,N/A,,Overcast,0,2012-10-03 18:54:00
3:54 PM,69.1,66.0,90,30.01,10.0,Calm,Calm,-,N/A,,Overcast,0,2012-10-03 19:54:00
4:50 PM,68.0,66.2,94,30.07,1.8,Calm,Calm,-,0.00,Rain,Light Rain,0,2012-10-03 20:50:00
4:54 PM,68.0,66.9,96,30.02,1.2,Calm,Calm,-,0.00,Rain,Light Rain,0,2012-10-03 20:54:00
5:49 PM,66.2,66.2,100,30.09,0.8,Calm,Calm,-,0.00,,Overcast,0,2012-10-03 21:49:00
5:54 PM,66.9,66.9,100,30.04,0.8,Calm,Calm,-,0.00,,Overcast,0,2012-10-03 21:54:00
5:58 PM,66.2,66.2,100,30.09,1.0,Calm,Calm,-,N/A,,Overcast,0,2012-10-03 21:58:00
6:08 PM,66.2,66.2,100,30.09,0.8,Calm,Calm,-,N/A,,Overcast,0,2012-10-03 22:08:00
6:26 PM,66.2,66.2,100,30.10,1.2,Calm,Calm,-,0.01,,Overcast,0,2012-10-03 22:26:00
6:41 PM,66.2,66.2,100,30.09,0.8,Calm,Calm,-,0.01,,Overcast,0,2012-10-03 22:41:00
6:54 PM,66.9,66.0,97,30.04,1.0,Calm,Calm,-,0.01,,Overcast,0,2012-10-03 22:54:00
7:05 PM,66.2,66.2,100,30.09,0.5,Calm,Calm,-,N/A,Fog,Fog,0,2012-10-03 23:05:00
7:54 PM,64.9,64.9,100,30.05,0.8,ENE,3.5,-,N/A,,Overcast,70,2012-10-03 23:54:00
8:01 PM,64.4,64.4,100,30.10,1.8,East,4.6,-,N/A,,Overcast,80,2012-10-04 00:01:00
8:20 PM,64.4,64.4,100,30.10,0.8,NE,4.6,-,N/A,,Overcast,50,2012-10-04 00:20:00
8:27 PM,64.4,64.4,100,30.11,1.2,NE,5.8,-,N/A,,Overcast,50,2012-10-04 00:27:00
8:41 PM,64.4,64.4,100,30.12,3.0,NE,4.6,-,N/A,,Overcast,40,2012-10-04 00:41:00
8:54 PM,64.9,64.0,97,30.07,2.5,North,4.6,-,N/A,,Overcast,360,2012-10-04 00:54:00
9:02 PM,64.4,64.4,100,30.12,1.5,North,3.5,-,N/A,,Overcast,10,2012-10-04 01:02:00
9:15 PM,64.4,64.4,100,30.12,2.5,NNE,3.5,-,0.01,,Overcast,20,2012-10-04 01:15:00
9:31 PM,64.4,64.4,100,30.12,3.0,Calm,Calm,-,0.01,,Overcast,0,2012-10-04 01:31:00
9:40 PM,64.4,64.4,100,30.13,5.0,NE,3.5,-,0.01,,Overcast,40,2012-10-04 01:40:00
9:54 PM,64.0,63.0,96,30.08,5.0,NE,3.5,-,0.01,,Overcast,40,2012-10-04 01:54:00
10:24 PM,64.4,62.6,94,30.13,2.0,NNE,4.6,-,N/A,,Overcast,20,2012-10-04 02:24:00
10:32 PM,64.4,62.6,94,30.14,1.8,North,3.5,-,N/A,,Overcast,10,2012-10-04 02:32:00
10:54 PM,63.0,63.0,100,30.09,1.5,NNE,3.5,-,N/A,,Overcast,30,2012-10-04 02:54:00
11:13 PM,62.6,62.6,100,30.13,1.0,NE,3.5,-,N/A,,Overcast,50,2012-10-04 03:13:00
11:54 PM,63.0,63.0,100,30.09,1.2,Calm,Calm,-,0.01,,Overcast,0,2012-10-04 03:54:00